Time;durP1;ratioP1;P1;durP2;ratioP2;P2;SDS_P1;SDS_P2;PMS_P1;PMS_P2;Temp;Humidity;BMP_temperature;BMP_pressure;BME280_temperature;BME280_humidity;BME280_pressure;Samples;Min_cycle;Max_cycle;Signal;HPM_P1;HPM_P2
2021/05/17 00:00:11;;;;;;;0.80;0.10;;;9.70;99.90;;;;;;4956804;29;20023;-84
2021/05/17 00:02:46;;;;;;;2.10;0.22;;;9.70;99.90;;;;;;4956642;29;20484;-84
2021/05/17 00:05:15;;;;;;;0.35;0.13;;;9.70;99.90;;;;;;4958585;29;20038;-84
2021/05/17 00:07:42;;;;;;;0.30;0.20;;;9.70;99.90;;;;;;4959391;28;20139;-86
2021/05/17 00:10:09;;;;;;;0.43;0.20;;;9.70;99.90;;;;;;4957750;29;20031;-86
2021/05/17 00:12:35;;;;;;;2.08;0.20;;;9.60;99.90;;;;;;4958041;29;20027;-87
2021/05/17 00:15:03;;;;;;;0.88;0.10;;;9.60;99.90;;;;;;4957917;28;20094;-85
2021/05/17 00:17:29;;;;;;;1.15;0.20;;;9.50;99.90;;;;;;4972922;28;20449;-86
2021/05/17 00:19:55;;;;;;;1.25;0.10;;;9.50;99.90;;;;;;4960059;28;20027;-85
2021/05/17 00:22:22;;;;;;;1.30;0.20;;;9.40;99.90;;;;;;4976868;28;20031;-86
2021/05/17 00:24:48;;;;;;;0.43;0.10;;;9.40;99.90;;;;;;4970003;28;20035;-85
2021/05/17 00:27:14;;;;;;;0.10;0.10;;;9.30;99.90;;;;;;4957315;28;20050;-84
2021/05/17 00:29:39;;;;;;;1.02;0.10;;;9.40;99.90;;;;;;4957444;29;20091;-86
2021/05/17 00:32:17;;;;;;;0.55;0.17;;;9.40;99.90;;;;;;4958412;29;20480;-85
2021/05/17 00:34:43;;;;;;;0.10;0.10;;;9.40;99.90;;;;;;4961636;28;20031;-84
2021/05/17 00:37:09;;;;;;;0.93;0.20;;;9.40;99.90;;;;;;4958656;28;20103;-85
2021/05/17 00:39:35;;;;;;;1.77;0.30;;;9.50;99.90;;;;;;4975014;29;20026;-87
2021/05/17 00:42:02;;;;;;;1.65;0.10;;;9.40;99.90;;;;;;4983487;28;20045;-87
2021/05/17 00:44:28;;;;;;;0.75;0.10;;;9.40;99.90;;;;;;4980659;28;20114;-87
2021/05/17 00:46:55;;;;;;;0.22;0.08;;;9.40;99.90;;;;;;4980396;28;20041;-87
2021/05/17 00:49:21;;;;;;;0.57;0.20;;;9.40;99.90;;;;;;4978166;28;20058;-88
2021/05/17 00:51:47;;;;;;;0.75;0.22;;;9.40;99.90;;;;;;4977321;28;20030;-84
2021/05/17 00:54:12;;;;;;;0.73;0.20;;;9.40;99.90;;;;;;4975770;28;20368;-84
2021/05/17 00:56:42;;;;;;;0.43;0.10;;;9.40;99.90;;;;;;4976389;28;20054;-84
2021/05/17 00:59:08;;;;;;;0.30;0.10;;;9.40;99.90;;;;;;4976542;28;20081;-84
2021/05/17 01:01:34;;;;;;;0.30;0.10;;;9.40;99.90;;;;;;4975579;28;20038;-84
2021/05/17 01:04:00;;;;;;;0.30;0.10;;;9.40;99.90;;;;;;4976681;28;20023;-84
2021/05/17 01:06:28;;;;;;;1.25;0.17;;;9.40;99.90;;;;;;4975629;28;20026;-84
2021/05/17 01:09:20;;;;;;;1.75;0.32;;;9.50;99.90;;;;;;4975901;28;20046;-84
2021/05/17 01:11:46;;;;;;;0.43;0.20;;;9.50;99.90;;;;;;4972110;28;20189;-84
2021/05/17 01:14:15;;;;;;;0.47;0.20;;;9.40;99.90;;;;;;4976653;28;20035;-85
2021/05/17 01:16:41;;;;;;;0.10;0.10;;;9.40;99.90;;;;;;4978800;28;20027;-85
2021/05/17 01:19:12;;;;;;;0.57;0.10;;;9.40;99.90;;;;;;4978820;28;20067;-85
2021/05/17 01:21:55;;;;;;;2.33;0.20;;;9.40;99.90;;;;;;4977419;28;20030;-88
2021/05/17 01:24:21;;;;;;;0.45;0.10;;;9.30;99.90;;;;;;4978286;28;20058;-84
2021/05/17 01:26:47;;;;;;;0.20;0.10;;;9.30;99.90;;;;;;4977685;28;20023;-86
2021/05/17 01:29:15;;;;;;;0.73;0.10;;;9.30;99.90;;;;;;4979452;28;20027;-85
2021/05/17 01:31:41;;;;;;;1.40;0.10;;;9.30;99.90;;;;;;4977935;28;20030;-87
2021/05/17 01:34:09;;;;;;;0.47;0.20;;;9.30;99.90;;;;;;4977781;28;20031;-87
2021/05/17 01:36:37;;;;;;;0.95;0.20;;;9.30;99.90;;;;;;4977650;28;20038;-85
2021/05/17 01:39:04;;;;;;;0.20;0.10;;;9.30;99.90;;;;;;4977420;28;20037;-87
2021/05/17 01:41:29;;;;;;;1.70;0.20;;;9.20;99.90;;;;;;4977661;28;20034;-86
2021/05/17 01:44:12;;;;;;;0.52;0.10;;;9.20;99.90;;;;;;4977215;28;20055;-86
2021/05/17 01:46:40;;;;;;;0.65;0.20;;;9.20;99.90;;;;;;4979915;28;20453;-85
2021/05/17 01:49:05;;;;;;;0.30;0.10;;;9.20;99.90;;;;;;4970228;28;20027;-87
2021/05/17 01:51:31;;;;;;;0.30;0.10;;;9.20;99.90;;;;;;4961252;29;20144;-87
2021/05/17 01:53:59;;;;;;;1.50;0.30;;;9.10;99.90;;;;;;4962038;29;20069;-86
2021/05/17 01:56:26;;;;;;;0.88;0.20;;;9.70;99.90;;;;;;4961726;28;20039;-87
2021/05/17 01:58:51;;;;;;;0.28;0.10;;;9.10;99.90;;;;;;4960676;29;20054;-85
2021/05/17 02:01:18;;;;;;;0.30;0.10;;;9.10;99.90;;;;;;4961056;29;20027;-89
2021/05/17 02:03:48;;;;;;;0.20;0.10;;;9.10;99.90;;;;;;4962289;29;20033;-85
2021/05/17 02:06:16;;;;;;;0.85;0.20;;;9.10;99.90;;;;;;4961520;28;20479;-85
2021/05/17 02:08:48;;;;;;;0.40;0.10;;;9.10;99.90;;;;;;4961181;29;20029;-85
2021/05/17 02:11:16;;;;;;;3.20;0.20;;;9.10;99.90;;;;;;4960604;29;20107;-86
2021/05/17 02:13:41;;;;;;;1.55;0.20;;;9.10;99.90;;;;;;4961053;29;20085;-86
2021/05/17 02:16:11;;;;;;;0.63;0.17;;;9.10;99.90;;;;;;4959896;28;20110;-87
2021/05/17 02:18:38;;;;;;;0.43;0.10;;;9.10;99.90;;;;;;4960331;29;20038;-84
2021/05/17 02:21:05;;;;;;;0.60;0.10;;;9.10;99.90;;;;;;4960316;29;20035;-85
2021/05/17 02:23:31;;;;;;;1.58;0.22;;;9.10;99.90;;;;;;4960009;29;20126;-87
2021/05/17 02:26:02;;;;;;;0.28;0.10;;;9.10;99.90;;;;;;4960111;29;20055;-87
2021/05/17 02:28:29;;;;;;;0.22;0.10;;;9.10;99.90;;;;;;4959638;28;20027;-85
2021/05/17 02:30:54;;;;;;;0.40;0.10;;;9.00;99.90;;;;;;4959534;29;20045;-83
2021/05/17 02:33:20;;;;;;;2.17;0.20;;;9.00;99.90;;;;;;4959715;29;20114;-84
2021/05/17 02:35:46;;;;;;;0.10;0.10;;;8.90;99.90;;;;;;4959620;29;20571;-86
2021/05/17 02:38:12;;;;;;;0.57;0.10;;;8.90;99.90;;;;;;4950128;28;20043;-87
2021/05/17 02:40:38;;;;;;;1.05;0.10;;;8.90;99.90;;;;;;4940632;29;20070;-88
2021/05/17 02:43:09;;;;;;;1.38;0.10;;;8.90;99.90;;;;;;4940450;29;20030;-87
2021/05/17 02:45:37;;;;;;;0.30;0.10;;;8.90;99.90;;;;;;4940173;29;20028;-87
2021/05/17 02:48:04;;;;;;;0.77;0.00;;;8.90;99.90;;;;;;4940921;29;20024;-85
2021/05/17 02:50:34;;;;;;;1.90;0.10;;;8.80;99.90;;;;;;4944663;28;20023;-88
2021/05/17 02:53:01;;;;;;;1.45;0.10;;;8.80;99.90;;;;;;4959763;29;20117;-84
2021/05/17 02:55:32;;;;;;;0.25;0.03;;;8.80;99.90;;;;;;4959980;29;20094;-84
2021/05/17 02:58:06;;;;;;;4.13;0.20;;;8.80;99.90;;;;;;4957891;28;20031;-86
2021/05/17 03:00:34;;;;;;;0.55;0.10;;;8.80;99.90;;;;;;4958678;29;20031;-85
2021/05/17 03:03:09;;;;;;;1.75;0.10;;;8.80;99.90;;;;;;4958896;29;20119;-85
2021/05/17 03:05:40;;;;;;;0.57;0.25;;;8.80;99.90;;;;;;4959535;29;20106;-87
2021/05/17 03:08:13;;;;;;;1.23;0.10;;;8.80;99.90;;;;;;4952074;28;20063;-87
2021/05/17 03:10:43;;;;;;;1.17;0.20;;;8.80;99.90;;;;;;4945168;29;20079;-84
2021/05/17 03:13:12;;;;;;;2.10;0.20;;;8.90;99.90;;;;;;4939747;29;20028;-84
2021/05/17 03:15:41;;;;;;;1.40;0.10;;;8.80;99.90;;;;;;4939347;29;20019;-87
2021/05/17 03:18:08;;;;;;;0.55;0.20;;;8.80;99.90;;;;;;4938785;29;20031;-88
2021/05/17 03:20:35;;;;;;;0.98;0.15;;;8.80;99.90;;;;;;4944313;28;20031;-85
2021/05/17 03:23:11;;;;;;;0.15;0.10;;;8.80;99.90;;;;;;4958069;29;20031;-87
2021/05/17 03:25:42;;;;;;;0.15;0.10;;;8.80;99.90;;;;;;4959287;28;20130;-87
2021/05/17 03:28:08;;;;;;;1.02;0.10;;;8.80;99.90;;;;;;4959174;28;20515;-85
2021/05/17 03:30:34;;;;;;;2.45;0.20;;;8.80;99.90;;;;;;4958146;29;20055;-84
2021/05/17 03:33:02;;;;;;;0.77;0.15;;;8.70;99.90;;;;;;4959930;29;20027;-86
2021/05/17 03:35:28;;;;;;;3.25;0.20;;;8.70;99.90;;;;;;4957968;29;20046;-86
2021/05/17 03:37:53;;;;;;;0.93;0.10;;;8.70;99.90;;;;;;4957428;28;20039;-87
2021/05/17 03:40:22;;;;;;;0.45;0.13;;;8.70;99.90;;;;;;4957581;29;20031;-86
2021/05/17 03:42:48;;;;;;;1.20;0.63;;;8.60;99.90;;;;;;4957817;29;20059;-87
2021/05/17 03:45:17;;;;;;;1.45;0.10;;;8.70;99.90;;;;;;4958102;29;20055;-83
2021/05/17 03:47:43;;;;;;;0.20;0.10;;;8.60;99.90;;;;;;4959066;28;20027;-85
2021/05/17 03:50:11;;;;;;;0.68;0.20;;;8.60;99.90;;;;;;4959062;28;20420;-84
2021/05/17 03:52:37;;;;;;;1.30;0.10;;;8.60;99.90;;;;;;4958110;29;20031;-85
2021/05/17 03:55:04;;;;;;;1.65;0.13;;;8.60;99.90;;;;;;4957276;29;20034;-84
2021/05/17 03:57:31;;;;;;;0.10;0.10;;;8.60;99.90;;;;;;4957882;28;20481;-87
2021/05/17 03:59:57;;;;;;;1.10;0.30;;;8.60;99.90;;;;;;4957763;29;20027;-85
2021/05/17 04:02:24;;;;;;;0.73;0.10;;;8.60;99.90;;;;;;4957221;29;20034;-87
2021/05/17 04:04:59;;;;;;;0.40;0.13;;;8.60;99.90;;;;;;4956782;29;20423;-90
2021/05/17 04:07:45;;;;;;;2.17;0.17;;;8.70;99.90;;;;;;4959071;28;20110;-85
2021/05/17 04:15:40;;;;;;;1.58;0.10;;;8.70;99.90;;;;;;4958159;29;20051;-86
2021/05/17 04:18:06;;;;;;;0.87;0.10;;;8.70;99.90;;;;;;4957216;28;20035;-85
2021/05/17 04:20:31;;;;;;;1.20;0.10;;;8.70;99.90;;;;;;4961113;28;20051;-85
2021/05/17 04:22:58;;;;;;;0.65;0.10;;;8.80;99.90;;;;;;4976185;28;20046;-84
2021/05/17 04:25:24;;;;;;;0.63;0.20;;;8.80;99.90;;;;;;4972704;28;20493;-85
2021/05/17 04:27:55;;;;;;;0.20;0.10;;;8.70;99.90;;;;;;4956799;28;20035;-85
2021/05/17 04:30:21;;;;;;;0.60;0.20;;;8.80;99.90;;;;;;4956681;29;20395;-86
2021/05/17 04:32:47;;;;;;;0.30;0.13;;;8.90;99.90;;;;;;4957305;29;20100;-88
2021/05/17 04:35:13;;;;;;;2.40;0.43;;;8.90;99.90;;;;;;4958357;29;20465;-87
2021/05/17 04:37:39;;;;;;;0.80;0.17;;;9.00;99.90;;;;;;4957317;28;20094;-86
2021/05/17 04:40:06;;;;;;;1.60;0.15;;;9.00;99.90;;;;;;4957079;29;20027;-86
2021/05/17 04:42:32;;;;;;;0.40;0.10;;;9.10;99.90;;;;;;4956836;29;20477;-85
2021/05/17 04:44:58;;;;;;;0.93;0.20;;;9.10;99.90;;;;;;4955967;29;20023;-85
2021/05/17 04:47:24;;;;;;;0.25;0.10;;;9.10;99.90;;;;;;4956488;28;20505;-86
2021/05/17 04:49:50;;;;;;;0.50;0.10;;;9.10;99.90;;;;;;4956744;29;20078;-85
2021/05/17 04:52:18;;;;;;;1.13;0.10;;;9.10;99.90;;;;;;4956653;29;20079;-85
2021/05/17 04:54:44;;;;;;;0.50;0.10;;;9.00;99.90;;;;;;4956219;29;20035;-86
2021/05/17 04:57:10;;;;;;;1.08;0.10;;;9.00;99.90;;;;;;4956355;28;20031;-84
2021/05/17 04:59:37;;;;;;;0.68;0.10;;;9.00;99.90;;;;;;4954351;29;20444;-86
2021/05/17 05:02:04;;;;;;;1.52;0.10;;;9.00;99.90;;;;;;4953856;29;20514;-84
2021/05/17 05:04:32;;;;;;;1.17;0.10;;;9.00;99.90;;;;;;4954053;29;20396;-87
2021/05/17 05:06:57;;;;;;;0.57;0.10;;;9.10;99.90;;;;;;4953464;28;20476;-87
2021/05/17 05:09:24;;;;;;;2.33;0.20;;;9.10;99.90;;;;;;4953588;29;20122;-87
2021/05/17 05:11:50;;;;;;;1.50;0.20;;;9.20;99.90;;;;;;4953623;29;20031;-84
2021/05/17 05:14:15;;;;;;;0.10;0.10;;;9.20;99.90;;;;;;4954315;29;20039;-89
2021/05/17 05:16:41;;;;;;;0.40;0.10;;;9.20;99.90;;;;;;4953775;28;20198;-86
2021/05/17 05:19:07;;;;;;;1.83;0.20;;;9.20;99.90;;;;;;4953910;29;20031;-86
2021/05/17 05:21:34;;;;;;;1.30;0.20;;;9.30;99.90;;;;;;4955646;28;20154;-87
2021/05/17 05:24:00;;;;;;;1.10;0.30;;;9.40;99.90;;;;;;4957824;29;20032;-87
2021/05/17 05:31:55;;;;;;;1.38;0.10;;;9.80;99.90;;;;;;4951446;29;20047;-85
2021/05/17 05:34:23;;;;;;;1.00;0.17;;;9.80;99.90;;;;;;4957540;29;20376;-86
2021/05/17 05:36:48;;;;;;;0.77;0.10;;;10.00;99.90;;;;;;4957015;29;20503;-87
2021/05/17 05:39:14;;;;;;;0.75;0.50;;;10.20;99.90;;;;;;4957168;29;20090;-87
2021/05/17 05:41:41;;;;;;;0.57;0.20;;;10.20;99.90;;;;;;4956794;29;20476;-87
2021/05/17 05:44:07;;;;;;;0.90;0.10;;;10.20;99.90;;;;;;4966534;28;20066;-86
2021/05/17 05:46:35;;;;;;;0.50;0.10;;;10.00;99.90;;;;;;4976699;28;20034;-87
2021/05/17 05:49:01;;;;;;;0.88;0.10;;;9.90;99.90;;;;;;4968620;28;20380;-87
2021/05/17 05:51:29;;;;;;;1.38;0.10;;;9.80;99.90;;;;;;4939218;29;20123;-87
2021/05/17 05:53:59;;;;;;;0.82;0.20;;;9.80;99.90;;;;;;4946131;29;20038;-87
2021/05/17 05:56:25;;;;;;;1.23;0.10;;;9.70;99.90;;;;;;4956573;28;20406;-88
2021/05/17 05:58:52;;;;;;;0.40;0.10;;;9.70;99.90;;;;;;4958325;28;20407;-86
2021/05/17 06:01:19;;;;;;;1.23;0.10;;;10.00;99.90;;;;;;4956566;29;20134;-86
2021/05/17 06:03:45;;;;;;;0.47;0.10;;;9.80;99.90;;;;;;4955193;29;20023;-86
2021/05/17 06:06:11;;;;;;;0.10;0.03;;;9.80;99.90;;;;;;4963596;28;20031;-91
2021/05/17 06:08:40;;;;;;;0.32;0.00;;;9.90;99.90;;;;;;4952377;29;20038;-87
2021/05/17 06:11:07;;;;;;;0.68;0.10;;;10.00;99.90;;;;;;4955110;29;20035;-85
2021/05/17 06:13:36;;;;;;;0.35;0.05;;;10.00;99.90;;;;;;4956236;29;20397;-88
2021/05/17 06:16:05;;;;;;;0.43;0.10;;;10.10;99.90;;;;;;4953050;29;20031;-86
2021/05/17 06:18:32;;;;;;;0.50;0.10;;;10.10;99.90;;;;;;4955363;29;20508;-86
2021/05/17 06:21:00;;;;;;;0.70;0.10;;;10.10;99.90;;;;;;4954850;29;20042;-85
2021/05/17 06:23:28;;;;;;;1.10;0.10;;;10.20;99.90;;;;;;4955822;29;20023;-85
2021/05/17 06:25:57;;;;;;;0.20;0.10;;;10.30;99.90;;;;;;4952874;29;20500;-84
2021/05/17 06:28:26;;;;;;;1.35;0.40;;;10.40;99.90;;;;;;4954795;28;20074;-84
2021/05/17 06:30:58;;;;;;;0.10;0.00;;;10.50;99.90;;;;;;4956307;29;20035;-84
2021/05/17 06:33:25;;;;;;;1.25;0.08;;;10.50;99.90;;;;;;4953466;28;20391;-87
2021/05/17 06:35:54;;;;;;;0.55;0.20;;;10.50;99.90;;;;;;4951827;29;20031;-85
2021/05/17 06:38:21;;;;;;;0.63;0.15;;;10.50;99.90;;;;;;4954854;28;20437;-84
2021/05/17 06:40:47;;;;;;;2.95;0.13;;;10.70;99.90;;;;;;4953251;29;20552;-85
2021/05/17 06:43:16;;;;;;;1.08;0.10;;;10.90;99.90;;;;;;4956195;28;20516;-84
2021/05/17 06:45:44;;;;;;;2.67;0.10;;;10.90;99.90;;;;;;4955120;29;20536;-84
2021/05/17 06:48:10;;;;;;;0.35;0.10;;;10.90;99.90;;;;;;4953796;29;20114;-84
2021/05/17 06:50:37;;;;;;;0.28;0.08;;;11.00;99.90;;;;;;4954124;29;20111;-85
2021/05/17 06:53:04;;;;;;;0.38;0.10;;;11.20;99.90;;;;;;4952125;28;20032;-85
2021/05/17 06:55:56;;;;;;;0.75;0.10;;;11.20;99.90;;;;;;4954181;29;20029;-88
2021/05/17 06:58:25;;;;;;;0.17;0.00;;;11.20;99.90;;;;;;4954734;28;20153;-84
2021/05/17 07:00:53;;;;;;;1.05;0.10;;;11.10;99.90;;;;;;4951460;29;20401;-84
2021/05/17 07:03:22;;;;;;;0.10;0.10;;;11.00;99.90;;;;;;4952301;29;20118;-84
2021/05/17 07:05:49;;;;;;;0.30;0.10;;;10.90;99.90;;;;;;4954290;29;20039;-86
2021/05/17 07:13:28;;;;;;;0.40;0.10;;;10.80;99.90;;;;;;4956891;29;20035;-83
2021/05/17 07:15:55;;;;;;;0.85;0.10;;;10.80;99.90;;;;;;4955667;29;20043;-83
2021/05/17 07:18:21;;;;;;;0.63;0.10;;;10.80;99.90;;;;;;4952707;29;20019;-87
2021/05/17 07:26:03;;;;;;;0.82;0.10;;;11.20;99.90;;;;;;4956644;29;20038;-84
2021/05/17 07:28:30;;;;;;;1.90;0.20;;;11.10;99.90;;;;;;4950048;28;20464;-84
2021/05/17 07:31:05;;;;;;;0.25;0.10;;;11.20;99.90;;;;;;4956086;29;20027;-85
2021/05/17 07:33:31;;;;;;;0.57;0.10;;;11.20;99.90;;;;;;4940000;29;20034;-83
2021/05/17 07:36:00;;;;;;;0.40;0.10;;;11.30;99.90;;;;;;4960218;28;20114;-83
2021/05/17 07:38:32;;;;;;;1.10;0.13;;;11.20;99.90;;;;;;4958197;28;20035;-84
2021/05/17 07:40:59;;;;;;;0.28;0.13;;;11.50;99.90;;;;;;4956253;29;20111;-84
2021/05/17 07:43:25;;;;;;;1.50;0.13;;;11.80;99.90;;;;;;4953900;28;20028;-84
2021/05/17 07:45:51;;;;;;;0.20;0.10;;;12.20;99.90;;;;;;4954279;29;20019;-86
2021/05/17 07:48:18;;;;;;;1.75;0.28;;;12.30;99.90;;;;;;4949517;28;20050;-83
2021/05/17 07:50:44;;;;;;;0.20;0.08;;;12.50;99.90;;;;;;4956464;29;20052;-86
2021/05/17 07:53:11;;;;;;;1.50;0.20;;;12.40;99.90;;;;;;4953907;29;20095;-85
2021/05/17 07:55:37;;;;;;;0.88;0.10;;;12.20;99.90;;;;;;4954637;29;20063;-83
2021/05/17 07:58:03;;;;;;;0.30;0.10;;;12.40;99.90;;;;;;4957564;28;20031;-83
2021/05/17 08:00:28;;;;;;;1.75;0.20;;;12.40;99.90;;;;;;4956267;29;20030;-86
2021/05/17 08:02:54;;;;;;;0.30;0.10;;;12.50;99.90;;;;;;4955640;28;20038;-86
2021/05/17 08:05:20;;;;;;;0.28;0.03;;;12.50;99.90;;;;;;4948663;28;20054;-86
2021/05/17 08:07:45;;;;;;;0.75;0.10;;;12.50;99.90;;;;;;4954614;28;20445;-83
2021/05/17 08:10:12;;;;;;;0.63;0.10;;;12.20;99.90;;;;;;4954044;29;20054;-85
2021/05/17 08:12:39;;;;;;;0.82;0.03;;;12.30;99.90;;;;;;4956793;28;20049;-90
2021/05/17 08:15:06;;;;;;;0.40;0.00;;;12.60;99.90;;;;;;4959876;28;20031;-89
2021/05/17 08:17:32;;;;;;;0.32;0.10;;;12.80;99.90;;;;;;4960332;28;20027;-86
2021/05/17 08:19:59;;;;;;;1.45;0.10;;;13.10;99.90;;;;;;4952466;29;20035;-86
2021/05/17 08:22:24;;;;;;;0.15;0.00;;;13.40;99.90;;;;;;4950003;28;20103;-86
2021/05/17 08:24:50;;;;;;;0.47;0.00;;;13.50;99.90;;;;;;4957095;28;20047;-84
2021/05/17 08:27:16;;;;;;;0.40;0.10;;;13.80;99.90;;;;;;4957962;28;20039;-88
2021/05/17 08:29:43;;;;;;;0.10;0.00;;;13.80;99.90;;;;;;4948308;29;20123;-88
2021/05/17 08:32:10;;;;;;;0.47;0.10;;;14.20;99.90;;;;;;4948544;28;20103;-84
2021/05/17 08:34:37;;;;;;;0.08;0.00;;;14.10;99.90;;;;;;4948574;29;20036;-86
2021/05/17 08:37:04;;;;;;;0.80;0.35;;;14.60;99.90;;;;;;4949168;28;20035;-87
2021/05/17 08:39:31;;;;;;;0.93;0.13;;;14.80;99.90;;;;;;4947029;28;20035;-87
2021/05/17 08:41:58;;;;;;;0.00;0.00;;;14.30;99.90;;;;;;4946629;29;20047;-86
2021/05/17 08:44:25;;;;;;;0.35;0.08;;;14.50;99.90;;;;;;4962920;28;20494;-87
2021/05/17 08:46:50;;;;;;;1.38;0.13;;;14.30;99.90;;;;;;4963144;28;20031;-88
2021/05/17 08:49:17;;;;;;;0.10;0.08;;;14.30;99.90;;;;;;4952207;28;20042;-87
2021/05/17 08:51:45;;;;;;;0.38;0.00;;;14.30;99.90;;;;;;4935583;29;20034;-88
2021/05/17 08:54:12;;;;;;;0.10;0.00;;;13.90;99.90;;;;;;4950267;29;20031;-88
2021/05/17 08:56:45;;;;;;;0.32;0.00;;;13.70;99.90;;;;;;4950396;28;20606;-88
2021/05/17 08:59:15;;;;;;;0.38;0.10;;;13.60;99.90;;;;;;4945330;29;20030;-89
2021/05/17 09:01:42;;;;;;;1.02;0.08;;;13.70;99.90;;;;;;4944572;29;20062;-87
2021/05/17 09:04:11;;;;;;;0.90;0.08;;;13.60;99.90;;;;;;4944603;29;20023;-85
2021/05/17 09:06:41;;;;;;;1.38;0.10;;;13.60;99.90;;;;;;4944345;29;20111;-86
2021/05/17 09:09:29;;;;;;;1.48;0.30;;;13.50;99.90;;;;;;4952645;29;20088;-85
2021/05/17 09:11:58;;;;;;;0.45;0.10;;;13.60;99.90;;;;;;4952127;28;20057;-86
2021/05/17 09:14:24;;;;;;;0.20;0.10;;;13.60;99.90;;;;;;4948916;29;20035;-85
2021/05/17 09:16:53;;;;;;;1.38;0.05;;;13.70;99.90;;;;;;4947749;28;20066;-86
2021/05/17 09:19:21;;;;;;;1.50;0.20;;;14.00;99.90;;;;;;4947333;29;20027;-84
2021/05/17 09:22:10;;;;;;;0.30;0.10;;;13.90;99.90;;;;;;4949173;29;20135;-88
2021/05/17 09:25:02;;;;;;;0.52;0.10;;;13.70;99.90;;;;;;4946090;29;20023;-88
2021/05/17 09:27:30;;;;;;;0.40;0.00;;;13.80;99.90;;;;;;4948759;28;20051;-88
2021/05/17 09:29:59;;;;;;;0.30;0.10;;;14.40;99.90;;;;;;4943875;29;20063;-87
2021/05/17 09:32:27;;;;;;;0.98;0.20;;;14.60;99.90;;;;;;4944612;29;20086;-88
2021/05/17 09:35:25;;;;;;;0.65;0.10;;;14.70;99.90;;;;;;4940570;28;20122;-87
2021/05/17 09:37:58;;;;;;;0.90;0.15;;;15.10;99.90;;;;;;4937926;28;20043;-87
2021/05/17 09:40:33;;;;;;;0.85;0.10;;;14.80;99.90;;;;;;4943059;29;20031;-86
2021/05/17 09:43:07;;;;;;;1.27;0.20;;;14.30;99.90;;;;;;4941034;29;20028;-87
2021/05/17 09:45:40;;;;;;;1.80;0.20;;;13.70;99.90;;;;;;4945562;29;20030;-88
2021/05/17 09:48:09;;;;;;;1.25;0.20;;;13.30;99.90;;;;;;4942152;28;20047;-86
2021/05/17 09:50:57;;;;;;;0.20;0.05;;;12.90;99.90;;;;;;4944776;29;20252;-88
2021/05/17 09:53:25;;;;;;;0.30;0.10;;;12.70;99.90;;;;;;4942853;29;20028;-88
2021/05/17 09:55:53;;;;;;;0.03;0.00;;;12.70;99.90;;;;;;4950402;28;20437;-87
2021/05/17 09:58:42;;;;;;;0.90;0.10;;;12.90;99.90;;;;;;4949632;28;20101;-88
2021/05/17 10:01:09;;;;;;;0.60;0.10;;;13.10;99.90;;;;;;4946675;29;20023;-87
2021/05/17 10:03:46;;;;;;;0.03;0.00;;;13.60;99.90;;;;;;4961918;28;20362;-88
2021/05/17 10:06:18;;;;;;;1.35;0.20;;;13.70;99.90;;;;;;4946462;28;20067;-87
2021/05/17 10:08:43;;;;;;;0.47;0.10;;;13.90;99.90;;;;;;4965389;28;20031;-87
2021/05/17 10:11:10;;;;;;;0.88;0.17;;;13.80;99.90;;;;;;4949590;29;20735;-87
2021/05/17 10:13:37;;;;;;;0.95;0.15;;;13.80;99.90;;;;;;4940438;28;20046;-87
2021/05/17 10:16:06;;;;;;;1.40;0.20;;;13.70;99.90;;;;;;4956593;29;20223;-85
2021/05/17 10:18:32;;;;;;;1.33;0.10;;;13.50;99.90;;;;;;4954930;29;20048;-86
2021/05/17 10:20:59;;;;;;;2.47;0.22;;;13.30;99.90;;;;;;4953584;28;20030;-86
2021/05/17 10:23:26;;;;;;;0.30;0.10;;;13.20;99.90;;;;;;4956794;29;20031;-87
2021/05/17 10:25:53;;;;;;;0.20;0.10;;;13.30;99.90;;;;;;4958896;29;20042;-85
2021/05/17 10:28:24;;;;;;;0.52;0.13;;;13.50;99.90;;;;;;4953503;29;20028;-86
2021/05/17 10:30:50;;;;;;;1.40;0.10;;;13.60;99.90;;;;;;4956929;28;20023;-84
2021/05/17 10:33:28;;;;;;;0.25;0.20;;;13.70;99.90;;;;;;4956668;29;20035;-90
2021/05/17 10:35:56;;;;;;;1.73;0.10;;;13.40;99.90;;;;;;4952625;28;20047;-84
2021/05/17 10:38:44;;;;;;;0.82;0.22;;;13.10;99.90;;;;;;4952252;28;20504;-89
2021/05/17 10:41:21;;;;;;;2.45;0.35;;;12.40;99.90;;;;;;4966790;28;20057;-86
2021/05/17 10:44:40;;;;;;;0.82;0.03;;;12.30;99.90;;;;;;4951096;29;20030;-85
2021/05/17 10:46:55;;;;;;;2.22;0.20;;;12.20;99.90;;;;;;4949933;28;20091;-85
2021/05/17 10:49:33;;;;;;;0.68;0.10;;;12.60;99.90;;;;;;4953922;29;20027;-85
2021/05/17 10:52:09;;;;;;;0.25;0.10;;;13.10;99.90;;;;;;4952052;29;20034;-87
2021/05/17 10:54:41;;;;;;;1.42;0.10;;;13.50;99.90;;;;;;4947675;29;20561;-88
2021/05/17 10:57:17;;;;;;;;;;;13.90;99.90;;;;;;4948077;28;20113;-88
2021/05/17 11:02:37;;;;;;;1.17;0.47;;;14.40;99.90;;;;;;4956659;28;20038;-87
2021/05/17 11:05:32;;;;;;;2.03;0.20;;;14.60;99.90;;;;;;4950875;29;20108;-86
2021/05/17 11:08:09;;;;;;;0.45;0.10;;;14.90;99.90;;;;;;4947373;28;20035;-88
2021/05/17 11:10:40;;;;;;;1.17;0.05;;;15.30;99.90;;;;;;4950426;29;20042;-88
2021/05/17 11:13:11;;;;;;;0.65;0.00;;;15.60;99.90;;;;;;4951869;29;20012;-87
2021/05/17 11:16:00;;;;;;;1.00;0.10;;;15.50;99.90;;;;;;4952967;28;20075;-87
2021/05/17 11:18:40;;;;;;;2.08;0.50;;;14.90;99.90;;;;;;4945918;28;20448;-86
2021/05/17 11:21:12;;;;;;;0.90;0.20;;;14.30;99.90;;;;;;4949475;28;20038;-88
2021/05/17 11:23:44;;;;;;;1.55;0.10;;;14.50;99.90;;;;;;4954561;28;20027;-89
2021/05/17 11:26:15;;;;;;;0.10;0.00;;;14.60;99.90;;;;;;4971314;28;20402;-88
2021/05/17 11:28:41;;;;;;;0.43;0.10;;;14.70;99.90;;;;;;4952617;28;20686;-86
2021/05/17 11:34:19;;;;;;;1.80;0.20;;;14.60;99.90;;;;;;4953779;29;20050;-87
2021/05/17 11:36:51;;;;;;;0.90;0.10;;;14.40;99.90;;;;;;4955261;28;20146;-87
2021/05/17 11:39:23;;;;;;;0.10;0.00;;;14.20;99.90;;;;;;4954846;28;20071;-87
2021/05/17 11:42:17;;;;;;;0.57;0.10;;;13.70;99.90;;;;;;4949802;29;20506;-87
2021/05/17 11:44:57;;;;;;;0.70;0.20;;;12.70;99.90;;;;;;4967569;28;20082;-87
2021/05/17 11:47:28;;;;;;;1.17;0.10;;;12.40;99.90;;;;;;4951052;28;20039;-88
2021/05/17 11:49:55;;;;;;;0.85;0.15;;;12.50;99.90;;;;;;4952114;29;20049;-88
2021/05/17 11:52:23;;;;;;;1.60;0.30;;;12.60;99.90;;;;;;4954312;29;20055;-88
2021/05/17 11:54:55;;;;;;;1.10;0.17;;;12.60;99.90;;;;;;4950454;28;20019;-89
2021/05/17 11:57:36;;;;;;;0.20;0.10;;;12.80;99.90;;;;;;4951606;28;20027;-87
2021/05/17 12:00:11;;;;;;;0.85;0.22;;;13.10;99.90;;;;;;4951037;29;20030;-89
2021/05/17 12:02:48;;;;;;;0.57;0.10;;;13.30;99.90;;;;;;4950062;28;20058;-89
2021/05/17 12:05:15;;;;;;;1.85;0.22;;;13.80;99.90;;;;;;4950949;29;20023;-90
2021/05/17 12:07:49;;;;;;;0.45;0.03;;;14.20;99.90;;;;;;4946069;28;20042;-89
2021/05/17 12:10:16;;;;;;;0.20;0.00;;;14.60;99.90;;;;;;4950239;28;20027;-88
2021/05/17 12:12:42;;;;;;;0.30;0.10;;;14.30;99.90;;;;;;4945911;28;20481;-87
2021/05/17 12:15:11;;;;;;;1.35;0.10;;;14.50;99.90;;;;;;4951843;29;20035;-87
2021/05/17 12:17:38;;;;;;;0.10;0.00;;;14.50;99.90;;;;;;4948717;28;20035;-89
2021/05/17 12:20:10;;;;;;;0.10;0.00;;;14.20;99.90;;;;;;4949314;29;20086;-87
2021/05/17 12:22:56;;;;;;;;;;;13.80;99.90;;;;;;4954353;28;20027;-88
2021/05/17 12:25:23;;;;;;;0.75;0.10;;;13.90;99.90;;;;;;4947354;28;19910;-86
2021/05/17 12:27:51;;;;;;;0.05;0.00;;;13.80;99.90;;;;;;4949478;28;20085;-89
2021/05/17 12:30:27;;;;;;;0.40;0.10;;;13.90;99.90;;;;;;4950260;28;21802;-90
2021/05/17 12:33:00;;;;;;;0.52;0.13;;;14.10;99.90;;;;;;4947202;29;20062;-87
2021/05/17 12:35:39;;;;;;;0.20;0.00;;;14.50;99.90;;;;;;4948925;28;20050;-86
2021/05/17 12:38:21;;;;;;;0.65;0.03;;;15.00;99.90;;;;;;4968775;28;20043;-83
2021/05/17 12:40:48;;;;;;;0.10;0.00;;;15.80;99.90;;;;;;4964703;28;20026;-83
2021/05/17 12:43:16;;;;;;;0.57;0.03;;;16.30;99.90;;;;;;4966500;28;20031;-85
2021/05/17 12:45:47;;;;;;;0.05;0.00;;;16.80;99.90;;;;;;4960498;29;20038;-85
2021/05/17 12:48:17;;;;;;;0.00;0.00;;;17.00;99.90;;;;;;4958316;29;20043;-86
2021/05/17 12:50:44;;;;;;;1.75;0.00;;;16.50;98.50;;;;;;4951185;29;20023;-86
2021/05/17 12:53:17;;;;;;;0.00;0.00;;;16.60;98.40;;;;;;4949390;29;20043;-87
2021/05/17 12:55:51;;;;;;;0.32;0.10;;;16.40;98.30;;;;;;4949663;28;20054;-85
2021/05/17 12:58:35;;;;;;;0.20;0.00;;;16.80;98.30;;;;;;4947584;28;20149;-86
2021/05/17 13:01:07;;;;;;;0.52;0.10;;;16.80;98.30;;;;;;4942304;29;20082;-85
2021/05/17 13:03:36;;;;;;;0.00;0.00;;;16.70;97.40;;;;;;4961165;28;20054;-86
2021/05/17 13:06:04;;;;;;;2.35;0.10;;;16.80;96.90;;;;;;4927746;29;20042;-85
2021/05/17 13:08:44;;;;;;;0.03;0.00;;;16.40;96.70;;;;;;4946439;28;20063;-85
2021/05/17 13:11:42;;;;;;;1.08;0.10;;;16.40;96.50;;;;;;4948041;29;20031;-86
2021/05/17 13:14:14;;;;;;;0.75;0.20;;;16.50;98.10;;;;;;4940701;28;20110;-86
2021/05/17 13:16:44;;;;;;;;;;;17.00;95.90;;;;;;4945380;28;20038;-86
2021/05/17 13:30:52;;;;;;;0.13;0.00;;;19.20;89.20;;;;;;4943472;28;20119;-87
2021/05/17 13:33:29;;;;;;;0.10;0.00;;;18.50;89.00;;;;;;4939871;29;20396;-87
2021/05/17 13:36:16;;;;;;;0.00;0.00;;;17.40;88.20;;;;;;4947367;29;20055;-87
2021/05/17 13:38:50;;;;;;;0.10;0.00;;;16.90;90.60;;;;;;4946673;28;20067;-87
2021/05/17 13:41:17;;;;;;;0.00;0.00;;;16.70;92.10;;;;;;4950718;28;20044;-86
2021/05/17 13:43:43;;;;;;;0.20;0.08;;;16.50;92.80;;;;;;4951940;29;20114;-87